createdAt,value
2022-07-29T00:02:09.583Z,100483.41
2022-07-29T00:04:58.182Z,100478.63
2022-07-29T00:07:46.955Z,100483.56
2022-07-29T00:10:35.585Z,100485.44
2022-07-29T00:13:32.285Z,100485.66
2022-07-29T00:16:22.780Z,100487.97
2022-07-29T00:19:11.363Z,100491.72
2022-07-29T00:22:01.184Z,100489.38
2022-07-29T00:24:50.549Z,100482.81
2022-07-29T00:27:39.404Z,100470.44
2022-07-29T00:30:27.990Z,100463.41
2022-07-29T00:33:17.920Z,100463.88
2022-07-29T00:36:06.089Z,100458.50
2022-07-29T00:38:54.976Z,100454.94
2022-07-29T00:41:43.496Z,100451.88
2022-07-29T00:44:32.345Z,100453.50
2022-07-29T00:47:20.891Z,100460.53
2022-07-29T00:50:12.760Z,100453.16
2022-07-29T00:53:02.052Z,100452.69
2022-07-29T00:55:50.873Z,100444.47
2022-07-29T00:58:41.479Z,100449.03
2022-07-29T01:01:30.439Z,100442.84
2022-07-29T01:04:19.176Z,100432.31
2022-07-29T01:07:09.810Z,100430.22
2022-07-29T01:09:59.540Z,100429.63
2022-07-29T01:12:50.493Z,100425.91
2022-07-29T01:15:48.952Z,100417.25
2022-07-29T01:18:42.304Z,100421.56
2022-07-29T01:21:47.180Z,100420.53
2022-07-29T01:24:45.007Z,100416.88
2022-07-29T01:27:54.527Z,100418.13
2022-07-29T01:30:46.036Z,100413.94
2022-07-29T01:33:50.709Z,100413.94
2022-07-29T01:36:46.730Z,100416.88
2022-07-29T01:39:37.057Z,100410.66
2022-07-29T01:42:29.617Z,100403.66
2022-07-29T01:45:20.214Z,100413.34
2022-07-29T01:48:14.937Z,100409.78
2022-07-29T01:51:08.613Z,100410.16
2022-07-29T01:54:01.656Z,100411.41
2022-07-29T01:56:52.860Z,100409.31
2022-07-29T01:59:42.024Z,100408.28
2022-07-29T02:02:31.942Z,100412.13
2022-07-29T02:05:24.082Z,100409.44
2022-07-29T02:08:13.737Z,100415.66
2022-07-29T02:11:03.375Z,100414.81
2022-07-29T02:13:52.416Z,100410.28
2022-07-29T02:16:42.828Z,100405.13
2022-07-29T02:19:34.590Z,100402.44
2022-07-29T02:22:25.828Z,100406.75
2022-07-29T02:25:15.039Z,100399.75
2022-07-29T02:28:05.496Z,100394.25
2022-07-29T02:30:56.331Z,100390.50
2022-07-29T02:33:45.577Z,100391.34
2022-07-29T02:36:34.438Z,100398.09
2022-07-29T02:39:25.795Z,100399.44
2022-07-29T02:42:16.104Z,100401.34
2022-07-29T02:45:04.801Z,100394.44
2022-07-29T02:47:54.472Z,100391.56
2022-07-29T02:50:47.331Z,100395.75
2022-07-29T02:53:36.626Z,100394.03
2022-07-29T02:56:29.804Z,100392.00
2022-07-29T02:59:20.815Z,100394.91
2022-07-29T03:02:10.388Z,100391.63
2022-07-29T03:05:00.904Z,100397.47
2022-07-29T03:07:54.477Z,100395.00
2022-07-29T03:10:48.182Z,100397.47
2022-07-29T03:13:39.040Z,100398.72
2022-07-29T03:16:27.854Z,100394.41
2022-07-29T03:19:16.734Z,100390.88
2022-07-29T03:22:05.418Z,100394.16
2022-07-29T03:24:54.027Z,100398.13
2022-07-29T03:27:42.880Z,100389.63
2022-07-29T03:30:32.730Z,100396.63
2022-07-29T03:33:22.422Z,100392.09
2022-07-29T03:36:10.963Z,100390.88
2022-07-29T03:38:59.611Z,100375.81
2022-07-29T03:41:51.770Z,100372.53
2022-07-29T03:44:41.568Z,100385.13
2022-07-29T03:47:50.307Z,100385.13
2022-07-29T03:50:40.353Z,100377.91
2022-07-29T03:53:28.932Z,100376.47
2022-07-29T03:56:18.637Z,100375.22
2022-07-29T03:59:07.423Z,100376.06
2022-07-29T04:01:56.350Z,100383.06
2022-07-29T04:04:46.364Z,100375.59
2022-07-29T04:07:34.929Z,100384.69
2022-07-29T04:10:30.316Z,100385.50
2022-07-29T04:13:20.900Z,100393.34
2022-07-29T04:16:09.476Z,100387.97
2022-07-29T04:18:58.117Z,100386.34
2022-07-29T04:21:50.236Z,100385.28
2022-07-29T04:24:40.217Z,100387.97
2022-07-29T04:27:31.466Z,100389.25
2022-07-29T04:30:20.243Z,100389.78
2022-07-29T04:33:11.671Z,100381.41
2022-07-29T04:36:00.184Z,100392.03
2022-07-29T04:38:51.112Z,100387.38
2022-07-29T04:41:39.679Z,100391.09
2022-07-29T04:44:29.504Z,100390.06
2022-07-29T04:47:19.027Z,100397.66
2022-07-29T04:50:08.899Z,100393.13
2022-07-29T04:52:57.433Z,100398.56
2022-07-29T04:55:47.398Z,100390.16
2022-07-29T04:58:37.099Z,100388.28
2022-07-29T05:01:25.789Z,100387.69
2022-07-29T05:04:14.536Z,100383.56
2022-07-29T05:07:03.264Z,100377.38
2022-07-29T05:09:51.739Z,100382.75
2022-07-29T05:12:41.640Z,100386.03
2022-07-29T05:15:30.197Z,100378.56
2022-07-29T05:18:19.867Z,100378.13
2022-07-29T05:21:14.640Z,100376.06
2022-07-29T05:24:03.189Z,100379.75
2022-07-29T05:26:52.769Z,100383.28
2022-07-29T05:29:45.808Z,100379.75
2022-07-29T05:32:34.551Z,100388.88
2022-07-29T05:35:23.676Z,100386.16
2022-07-29T05:38:12.164Z,100390.97
2022-07-29T05:41:00.895Z,100388.88
2022-07-29T05:43:49.597Z,100393.34
2022-07-29T05:46:39.645Z,100390.50
2022-07-29T05:49:28.442Z,100388.88
2022-07-29T05:52:18.380Z,100379.75
2022-07-29T05:55:07.646Z,100389.31
2022-07-29T05:57:56.231Z,100388.13
2022-07-29T06:00:44.991Z,100384.78
2022-07-29T06:03:35.559Z,100389.31
2022-07-29T06:06:24.129Z,100390.16
2022-07-29T06:09:15.967Z,100402.16
2022-07-29T06:12:04.857Z,100388.13
2022-07-29T06:14:54.309Z,100389.31
2022-07-29T06:18:00.207Z,100395.16
2022-07-29T06:20:51.344Z,100393.06
2022-07-29T06:23:39.986Z,100392.66
2022-07-29T06:26:31.489Z,100389.78
2022-07-29T06:29:21.131Z,100388.50
2022-07-29T06:32:10.465Z,100385.44
2022-07-29T06:35:24.475Z,100388.28
2022-07-29T06:38:30.137Z,100394.25
2022-07-29T06:41:18.039Z,100390.50
2022-07-29T06:44:06.742Z,100399.59
2022-07-29T06:46:55.802Z,100395.88
2022-07-29T06:49:44.431Z,100407.66
2022-07-29T06:52:33.004Z,100402.28
2022-07-29T06:55:25.029Z,100405.38
2022-07-29T06:58:21.469Z,100401.25
2022-07-29T07:01:10.063Z,100403.34
2022-07-29T07:04:02.437Z,100399.59
2022-07-29T07:06:51.026Z,100405.59
2022-07-29T07:09:39.922Z,100412.38
2022-07-29T07:12:30.178Z,100399.78
2022-07-29T07:15:22.653Z,100400.81
2022-07-29T07:18:27.263Z,100408.88
2022-07-29T07:21:19.290Z,100403.66
2022-07-29T07:24:08.938Z,100405.53
2022-07-29T07:26:57.543Z,100405.75
2022-07-29T07:29:47.382Z,100400.38
2022-07-29T07:32:36.172Z,100407.38
2022-07-29T07:35:25.203Z,100395.81
2022-07-29T07:38:13.745Z,100395.00
2022-07-29T07:41:02.885Z,100393.34
2022-07-29T07:43:51.397Z,100389.63
2022-07-29T07:46:41.293Z,100392.31
2022-07-29T07:49:30.804Z,100395.19
2022-07-29T07:52:20.144Z,100396.63
2022-07-29T07:55:09.676Z,100389.63
2022-07-29T07:57:58.318Z,100388.13
2022-07-29T08:00:46.888Z,100377.94
2022-07-29T08:03:36.825Z,100380.06
2022-07-29T08:06:26.013Z,100383.31
2022-07-29T08:09:28.791Z,100376.31
2022-07-29T08:12:18.602Z,100369.22
2022-07-29T08:15:09.103Z,100364.50
2022-07-29T08:17:57.678Z,100357.06
2022-07-29T08:20:47.682Z,100357.06
2022-07-29T08:23:45.540Z,100353.72
2022-07-29T08:26:35.912Z,100361.16
2022-07-29T08:29:24.456Z,100353.47
2022-07-29T08:32:13.263Z,100357.34
2022-07-29T08:35:01.948Z,100359.03
2022-07-29T08:37:52.119Z,100355.47
2022-07-29T08:40:40.679Z,100352.59
2022-07-29T08:43:29.958Z,100344.06
2022-07-29T08:46:19.226Z,100358.47
2022-07-29T08:49:08.070Z,100355.41
2022-07-29T08:51:59.858Z,100348.78
2022-07-29T08:54:50.282Z,100349.56
2022-07-29T08:57:39.306Z,100341.28
2022-07-29T09:00:39.562Z,100342.34
2022-07-29T09:03:33.482Z,100337.91
2022-07-29T09:06:22.356Z,100332.91
2022-07-29T09:09:11.146Z,100331.63
2022-07-29T09:12:01.749Z,100328.03
2022-07-29T09:14:50.353Z,100326.50
2022-07-29T09:17:46.424Z,100318.59
2022-07-29T09:20:48.892Z,100319.38
2022-07-29T09:23:37.509Z,100307.34
2022-07-29T09:26:31.498Z,100311.69
2022-07-29T09:29:23.079Z,100312.72
2022-07-29T09:32:13.027Z,100304.88
2022-07-29T09:35:18.144Z,100307.34
2022-07-29T09:38:13.557Z,100305.25
2022-07-29T09:41:05.907Z,100311.78
2022-07-29T09:43:58.516Z,100312.41
2022-07-29T09:46:59.815Z,100299.97
2022-07-29T09:49:58.907Z,100301.66
2022-07-29T09:52:49.460Z,100315.09
2022-07-29T09:55:50.750Z,100314.63
2022-07-29T09:58:40.629Z,100315.69
2022-07-29T10:01:30.905Z,100312.53
2022-07-29T10:04:20.945Z,100306.66
2022-07-29T10:07:09.664Z,100305.78
2022-07-29T10:09:59.484Z,100305.78
2022-07-29T10:12:52.440Z,100298.31
2022-07-29T10:15:44.636Z,100299.94
2022-07-29T10:18:33.437Z,100289.53
2022-07-29T10:21:35.969Z,100296.78
2022-07-29T10:24:25.197Z,100290.34
2022-07-29T10:27:13.738Z,100289.91
2022-07-29T10:30:02.690Z,100287.78
2022-07-29T10:33:02.614Z,100288.59
2022-07-29T10:36:02.568Z,100287.78
2022-07-29T10:38:57.990Z,100286.84
2022-07-29T10:41:59.374Z,100289.66
2022-07-29T10:44:48.117Z,100282.75
2022-07-29T10:47:36.612Z,100280.06
2022-07-29T10:50:25.324Z,100274.66
2022-07-29T10:53:14.314Z,100267.31
2022-07-29T10:56:06.436Z,100263.28
2022-07-29T10:59:27.089Z,100267.88
2022-07-29T11:02:44.856Z,100268.25
2022-07-29T11:09:20.219Z,100260.25
2022-07-29T11:12:47.895Z,100263.28
2022-07-29T11:15:55.775Z,100264.22
2022-07-29T11:19:30.822Z,100263.75
2022-07-29T11:22:34.874Z,100251.25
2022-07-29T11:25:50.989Z,100258.03
2022-07-29T11:28:32.878Z,100249.81
2022-07-29T11:31:36.241Z,100245.72
2022-07-29T11:34:28.168Z,100253.09
2022-07-29T11:37:20.273Z,100250.47
2022-07-29T11:40:20.172Z,100241.34
2022-07-29T11:43:10.064Z,100244.25
2022-07-29T11:46:03.452Z,100235.34
2022-07-29T11:48:54.620Z,100245.53
2022-07-29T11:51:48.370Z,100233.66
2022-07-29T11:54:57.145Z,100232.53
2022-07-29T12:01:04.819Z,100228.03
2022-07-29T12:04:06.865Z,100232.53
2022-07-29T12:07:00.500Z,100234.81
2022-07-29T12:09:53.090Z,100231.75
2022-07-29T12:12:47.861Z,100234.53
2022-07-29T12:15:45.663Z,100230.78
2022-07-29T12:18:35.032Z,100223.97
2022-07-29T12:21:25.700Z,100224.88
2022-07-29T12:24:14.600Z,100225.72
2022-07-29T12:27:03.352Z,100220.47
2022-07-29T12:29:58.832Z,100222.81
2022-07-29T12:32:48.959Z,100211.53
2022-07-29T12:35:37.760Z,100210.25
2022-07-29T12:38:28.223Z,100219.69
2022-07-29T12:41:17.418Z,100209.41
2022-07-29T12:44:06.456Z,100212.81
2022-07-29T12:47:04.659Z,100210.38
2022-07-29T12:49:53.845Z,100201.56
2022-07-29T12:52:42.447Z,100202.16
2022-07-29T12:55:51.893Z,100202.38
2022-07-29T12:58:44.522Z,100201.25
2022-07-29T13:01:39.294Z,100199.25
2022-07-29T13:04:28.642Z,100199.50
2022-07-29T13:07:54.148Z,100191.41
2022-07-29T13:10:38.580Z,100191.41
2022-07-29T13:13:28.534Z,100198.44
2022-07-29T13:16:17.186Z,100190.91
2022-07-29T13:19:07.878Z,100189.84
2022-07-29T13:21:56.957Z,100199.25
2022-07-29T13:24:53.278Z,100188.34
2022-07-29T13:27:42.343Z,100196.44
2022-07-29T13:30:32.464Z,100195.84
2022-07-29T13:33:21.102Z,100195.03
2022-07-29T13:36:09.982Z,100188.34
2022-07-29T13:38:58.558Z,100189.97
2022-07-29T13:41:47.119Z,100185.16
2022-07-29T13:44:35.882Z,100171.69
2022-07-29T13:47:32.284Z,100180.47
2022-07-29T13:50:22.861Z,100178.09
2022-07-29T13:53:11.419Z,100186.44
2022-07-29T13:56:07.786Z,100183.41
2022-07-29T13:58:56.398Z,100175.09
2022-07-29T14:01:45.571Z,100167.81
2022-07-29T14:04:36.795Z,100170.00
2022-07-29T14:07:28.268Z,100166.69
2022-07-29T14:10:20.040Z,100165.84
2022-07-29T14:13:25.177Z,100171.00
2022-07-29T14:16:14.999Z,100168.50
2022-07-29T14:19:03.618Z,100156.09
2022-07-29T14:21:53.507Z,100169.28
2022-07-29T14:24:42.149Z,100150.34
2022-07-29T14:27:38.061Z,100150.09
2022-07-29T14:30:27.134Z,100150.44
2022-07-29T14:33:15.654Z,100161.16
2022-07-29T14:36:04.245Z,100147.56
2022-07-29T14:38:57.096Z,100150.19
2022-07-29T14:41:45.812Z,100149.13
2022-07-29T14:44:34.370Z,100152.31
2022-07-29T14:47:24.311Z,100150.53
2022-07-29T14:50:13.100Z,100146.44
2022-07-29T14:53:01.802Z,100147.00
2022-07-29T14:55:52.075Z,100153.94
2022-07-29T14:58:40.875Z,100148.56
2022-07-29T15:01:40.441Z,100155.09
2022-07-29T15:04:29.207Z,100157.13
2022-07-29T15:07:18.678Z,100147.31
2022-07-29T15:10:08.015Z,100157.03
2022-07-29T15:12:58.672Z,100156.97
2022-07-29T15:15:47.161Z,100146.75
2022-07-29T15:18:35.774Z,100145.13
2022-07-29T15:21:24.329Z,100155.41
2022-07-29T15:24:12.860Z,100149.44
2022-07-29T15:27:01.519Z,100150.75
2022-07-29T15:29:51.533Z,100146.19
2022-07-29T15:32:40.053Z,100136.94
2022-07-29T15:35:29.483Z,100143.94
2022-07-29T15:38:18.461Z,100132.09
2022-07-29T15:41:07.005Z,100134.81
2022-07-29T15:43:55.613Z,100138.66
2022-07-29T15:47:05.592Z,100133.78
2022-07-29T15:49:55.636Z,100132.44
2022-07-29T15:52:44.142Z,100131.06
2022-07-29T15:55:32.755Z,100124.03
2022-07-29T15:58:21.293Z,100117.00
2022-07-29T16:01:10.049Z,100116.53
2022-07-29T16:04:00.805Z,100113.16
2022-07-29T16:06:49.782Z,100117.06
2022-07-29T16:09:38.314Z,100121.03
2022-07-29T16:12:29.138Z,100121.53
2022-07-29T16:15:20.012Z,100116.72
2022-07-29T16:18:09.321Z,100119.63
2022-07-29T16:20:59.730Z,100115.53
2022-07-29T16:23:48.252Z,100112.59
2022-07-29T16:26:38.044Z,100104.59
2022-07-29T16:29:26.675Z,100098.41
2022-07-29T16:32:15.241Z,100106.31
2022-07-29T16:35:11.358Z,100104.75
2022-07-29T16:38:01.205Z,100109.34
2022-07-29T16:40:49.784Z,100105.38
2022-07-29T16:43:38.534Z,100099.91
2022-07-29T16:46:27.164Z,100108.44
2022-07-29T16:49:19.470Z,100100.94
2022-07-29T16:52:08.627Z,100099.00
2022-07-29T16:54:58.578Z,100102.41
2022-07-29T16:57:47.194Z,100102.88
2022-07-29T17:00:36.056Z,100106.19
2022-07-29T17:03:24.702Z,100106.25
2022-07-29T17:06:13.220Z,100105.34
2022-07-29T17:09:01.695Z,100103.72
2022-07-29T17:11:56.814Z,100094.78
2022-07-29T17:14:51.440Z,100096.13
2022-07-29T17:17:55.500Z,100095.06
2022-07-29T17:20:45.585Z,100097.97
2022-07-29T17:23:34.153Z,100097.41
2022-07-29T17:26:22.762Z,100101.75
2022-07-29T17:29:14.831Z,100095.84
2022-07-29T17:32:03.767Z,100094.16
2022-07-29T17:34:52.297Z,100098.97
2022-07-29T17:37:40.866Z,100099.78
2022-07-29T17:40:29.463Z,100097.41
2022-07-29T17:43:17.996Z,100093.59
2022-07-29T17:46:09.009Z,100097.19
2022-07-29T17:48:58.905Z,100090.97
2022-07-29T17:51:47.662Z,100092.03
2022-07-29T17:54:36.306Z,100100.94
2022-07-29T17:57:26.240Z,100105.50
2022-07-29T18:00:15.499Z,100090.97
2022-07-29T18:03:05.764Z,100088.50
2022-07-29T18:05:55.065Z,100089.81
2022-07-29T18:08:47.465Z,100091.94
2022-07-29T18:11:36.191Z,100096.84
2022-07-29T18:14:24.924Z,100093.59
2022-07-29T18:17:15.076Z,100109.75
2022-07-29T18:20:05.390Z,100094.88
2022-07-29T18:22:54.023Z,100096.50
2022-07-29T18:25:42.899Z,100102.72
2022-07-29T18:28:32.707Z,100106.47
2022-07-29T18:31:21.288Z,100108.25
2022-07-29T18:34:09.815Z,100117.13
2022-07-29T18:37:00.445Z,100118.44
2022-07-29T18:39:49.591Z,100113.78
2022-07-29T18:42:39.021Z,100112.13
2022-07-29T18:45:28.730Z,100111.00
2022-07-29T18:48:17.743Z,100103.97
2022-07-29T18:51:09.087Z,100102.78
2022-07-29T18:53:59.722Z,100107.34
2022-07-29T18:56:48.409Z,100114.03
2022-07-29T18:59:36.912Z,100107.50
2022-07-29T19:02:25.845Z,100110.75
2022-07-29T19:05:14.528Z,100119.63
2022-07-29T19:08:03.124Z,100116.00
2022-07-29T19:10:54.430Z,100124.00
2022-07-29T19:13:42.952Z,100133.34
2022-07-29T19:16:31.563Z,100130.66
2022-07-29T19:19:20.137Z,100139.22
2022-07-29T19:22:08.669Z,100135.63
2022-07-29T19:24:57.176Z,100151.19
2022-07-29T19:27:47.325Z,100163.25
2022-07-29T19:30:36.089Z,100160.78
2022-07-29T19:33:26.869Z,100158.81
2022-07-29T19:36:15.587Z,100159.28
2022-07-29T19:39:04.316Z,100149.00
2022-07-29T19:41:56.473Z,100149.94
2022-07-29T19:44:48.238Z,100153.66
2022-07-29T19:47:38.262Z,100155.78
2022-07-29T19:50:27.428Z,100163.75
2022-07-29T19:53:17.400Z,100156.75
2022-07-29T19:56:08.860Z,100168.66
2022-07-29T19:58:58.043Z,100160.84
2022-07-29T20:01:50.937Z,100177.00
2022-07-29T20:04:39.605Z,100184.31
2022-07-29T20:07:28.267Z,100180.97
2022-07-29T20:10:17.019Z,100181.53
2022-07-29T20:13:05.615Z,100181.06
2022-07-29T20:15:54.203Z,100183.28
2022-07-29T20:18:44.172Z,100185.50
2022-07-29T20:21:33.947Z,100174.19
2022-07-29T20:24:23.157Z,100185.97
2022-07-29T20:27:13.416Z,100171.72
2022-07-29T20:30:02.305Z,100178.94
2022-07-29T20:32:51.400Z,100175.69
2022-07-29T20:35:41.303Z,100182.13
2022-07-29T20:38:30.675Z,100176.72
2022-07-29T20:41:19.197Z,100185.06
2022-07-29T20:44:07.997Z,100178.38
2022-07-29T20:46:57.266Z,100183.16
2022-07-29T20:49:46.038Z,100180.59
2022-07-29T20:52:35.955Z,100177.31
2022-07-29T20:55:24.480Z,100184.81
2022-07-29T20:58:12.957Z,100190.53
2022-07-29T21:01:01.721Z,100178.94
2022-07-29T21:03:50.697Z,100184.69
2022-07-29T21:06:39.305Z,100182.69
2022-07-29T21:09:30.266Z,100185.97
2022-07-29T21:12:18.992Z,100192.66
2022-07-29T21:15:08.572Z,100191.81
2022-07-29T21:18:02.042Z,100194.41
2022-07-29T21:20:50.624Z,100192.31
2022-07-29T21:23:39.145Z,100189.63
2022-07-29T21:26:29.089Z,100186.19
2022-07-29T21:29:16.689Z,100184.81
2022-07-29T21:32:05.915Z,100190.09
2022-07-29T21:34:55.552Z,100189.34
2022-07-29T21:37:44.090Z,100198.16
2022-07-29T21:40:32.568Z,100194.94
2022-07-29T21:43:22.903Z,100182.91
2022-07-29T21:46:11.525Z,100187.41
2022-07-29T21:49:00.399Z,100183.88
2022-07-29T21:51:49.114Z,100184.19
2022-07-29T21:54:39.742Z,100186.91
2022-07-29T21:57:29.996Z,100187.94
2022-07-29T22:00:21.165Z,100184.44
2022-07-29T22:03:10.611Z,100189.47
2022-07-29T22:05:59.363Z,100184.09
2022-07-29T22:08:48.142Z,100192.63
2022-07-29T22:11:36.963Z,100188.66
2022-07-29T22:14:25.642Z,100189.47
2022-07-29T22:17:15.863Z,100187.38
2022-07-29T22:20:05.102Z,100192.88
2022-07-29T22:22:53.869Z,100188.28
2022-07-29T22:25:42.611Z,100190.41
2022-07-29T22:28:31.331Z,100195.78
2022-07-29T22:31:20.155Z,100184.66
2022-07-29T22:34:13.219Z,100176.38
2022-07-29T22:37:02.223Z,100183.38
2022-07-29T22:39:51.298Z,100185.59
2022-07-29T22:42:40.933Z,100190.88
2022-07-29T22:45:29.649Z,100190.03
2022-07-29T22:48:19.518Z,100181.16
2022-07-29T22:51:09.363Z,100172.16
2022-07-29T22:53:58.685Z,100176.63
2022-07-29T22:56:47.218Z,100175.41
2022-07-29T22:59:37.618Z,100172.38
2022-07-29T23:02:27.419Z,100176.13
2022-07-29T23:05:16.367Z,100173.44
2022-07-29T23:08:06.574Z,100176.97
2022-07-29T23:10:55.106Z,100162.69
2022-07-29T23:13:43.614Z,100172.38
2022-07-29T23:16:32.197Z,100168.63
2022-07-29T23:19:21.516Z,100174.00
2022-07-29T23:22:10.054Z,100173.44
2022-07-29T23:24:59.944Z,100175.53
2022-07-29T23:27:48.491Z,100171.31
2022-07-29T23:30:37.646Z,100174.16
2022-07-29T23:33:26.330Z,100191.78
2022-07-29T23:36:14.797Z,100193.63
2022-07-29T23:39:03.360Z,100196.22
2022-07-29T23:41:53.299Z,100190.91
2022-07-29T23:44:41.790Z,100190.56
2022-07-29T23:47:30.289Z,100190.06
2022-07-29T23:50:18.931Z,100184.91
2022-07-29T23:53:08.569Z,100189.03
2022-07-29T23:55:57.261Z,100189.13
2022-07-29T23:58:47.143Z,100197.50
